Due to severe server failure at the provider, not all demo sites are operational. Will take some days to rebuilt everything.

Demonstration site - Click on the  for more information

This is an optional block. Switch it on/off in your settings-file: $SITE['bannerTop'] = false; or $SITE['bannerBottom'] = false;

You can display ads, any other important text or photo’s using text / html or PHP code.

You can place one or more at the top and or bottom and it can all be different for content / size .



Visit our other weather sites:

Template documentation
and downloads

And another site



Nearby METAR Reports

   
EBAW - Antwerp
Updated: 25-05-2020 21:20
Clear  
Clear  
   Wind: North 13 km/h
Wind: North 13 km/h
Temperature: 17°C
Dew Point: 9°C
Humidity: 59%
Barometer: 1035 hPa
Visibility: More than 10 km
Cloud details: Clear ft
EBAW 251920Z AUTO 01007KT 340V050 CAVOK 17/09 Q1035
EBLG - Liège
Updated: 25-05-2020 21:20
Clear  
Clear  
   Wind: NNE 11.1 km/h
Wind: NNE 11.1 km/h
Temperature: 17°C
Dew Point: 8°C
Humidity: 56%
Barometer: 1034 hPa
Visibility: More than 10 km
Cloud details: Clear ft
EBLG 251920Z 03006KT CAVOK 17/08 Q1034 NOSIG
EBCV - Mons/Bergen
Updated: 25-05-2020 21:25
Clear  
Clear  
   Wind: NNE 13 km/h
Wind: NNE 13 km/h
Temperature: 18°C
Dew Point: 9°C
Humidity: 56%
Barometer: 1034 hPa
Clouds: Clear
Visibility: More than 10 km
Cloud details: Clear ft
EBCV 251925Z AUTO 02007KT 9999 NCD 18/09 Q1034 BLU
EHBK - Maastricht
Updated: 25-05-2020 21:25
Clear  
Clear  
   Wind: North 14.8 km/h
Wind: North 14.8 km/h
Temperature: 17°C
Dew Point: 9°C
Humidity: 59%
Barometer: 1033 hPa
Clouds: Clear
Visibility: More than 10 km
Cloud details: Clear ft
EHBK 251925Z AUTO 01008KT 340V040 9999 NCD 17/09 Q1033 NOSIG
ELLX - Luxemburg
Updated: 25-05-2020 21:20
Clear  
Clear  
   Wind: North 9.3 km/h
Wind: North 9.3 km/h
Temperature: 16°C
Dew Point: 9°C
Humidity: 63%
Barometer: 1033 hPa
Visibility: More than 10 km
Cloud details: Clear ft
ELLX 251920Z 35005KT 330V030 CAVOK 16/09 Q1033 NOSIG
EBOS - Oostende
Updated: 25-05-2020 21:20
Clear  
Clear  
   Wind: East 13 km/h
Wind: East 13 km/h
Temperature: 15°C
Dew Point: 9°C
Humidity: 68%
Barometer: 1035 hPa
Visibility: More than 10 km
Cloud details: Clear ft
EBOS 251920Z 08007KT CAVOK 15/09 Q1035 NOSIG

Script developed by  Saratoga-weather.org Adapted for the template by  Weerstation Leuven

This is an optional block. Switch it on/off in your settings-file: $SITE['bannerTop'] = false; or $SITE['bannerBottom'] = false;

You can display ads, any other important text or photo’s using text / html or PHP code.

You can place one or more at the top and or bottom and it can all be different for content / size .